Aeroporto :
LOGIN :

Iscrizione | Disclaimer

   EN    FR    IT 

 










Sommario :    VFR   VFR Marginale   IFR   IFR Intensivo   IFR Molto Intensivo
Visibilità : 
Base nubi : 
>= 8 km
>= 3000ft
5 / 8 km
1000 / 3000 ft
1500m / 5 km
500 / 1000 ft
800 / 1500m
200 / 500 ft
< 800m
< 200 ft
Simboli :   Temporali  Nebbia  Neve Forte  Precipitazioni Forti  Vento > 20 kt
SIGMETs :   Varie  Temporali  Ghiacco  Turbolenza  Onda orograficha  Ceneri Vulcaniche







- Altitudine del aeroporto : 362 ft
- Codice IATA : WAW


EPWA - Warsaw Okecie

ULTIMO METAR :
  • 222030Z 29003KT CAVOK 19/11 Q1020 NOSIG

METARs OBSOLETI :
  • 222000Z 30004KT CAVOK 20/11 Q1020 NOSIG
  • 221930Z 31004KT CAVOK 21/11 Q1020 NOSIG
  • 221900Z 31005KT CAVOK 22/11 Q1020 NOSIG
  • 221830Z 31006KT CAVOK 22/10 Q1019 NOSIG
  • 221800Z 30008KT CAVOK 23/10 Q1019 NOSIG
  • 221730Z 30009KT CAVOK 23/10 Q1019 NOSIG

TAF TAF EPWA
Valido dal 22 a 21 ore il 23 a 21 ore UTC


222030Z 2221/2321 29007KT CAVOK
PROB40
TEMPO 2303/2309 -RA SCT008 BKN014
Nessun NOTAM noto per questo aeroporto.



MetMap, La meteo Aeronautica in un colpo d'occhio ! - Copyright ORBIFLY Dicembre 2007 - Disclaimer

ORBIFLY MET'MAP TEAM :

Programmazione e sviluppo : Alexandra Zaïnal
Concezione e sviluppo : Baudouin d'Aumeries
Co-Programmazione e sviluppo : Marc-Olivier Méhu
Supporto tecnico e logistico : Manuel Goepfert
Aiuto per la traduzione : Arnaldo La Scala

Contatto : metmap@orbifly.com




FONTI E CREDITI :

   NOAA